createdAt,value
2022-08-14T00:02:16.420Z,3.23
2022-08-14T00:04:45.927Z,3.57
2022-08-14T00:07:14.820Z,4.00
2022-08-14T00:09:56.083Z,3.70
2022-08-14T00:12:33.838Z,3.80
2022-08-14T00:15:10.691Z,3.80
2022-08-14T00:17:48.097Z,3.60
2022-08-14T00:20:30.397Z,3.80
2022-08-14T00:23:12.290Z,3.60
2022-08-14T00:25:53.794Z,3.97
2022-08-14T00:28:32.739Z,3.67
2022-08-14T00:31:05.549Z,3.60
2022-08-14T00:33:51.545Z,3.63
2022-08-14T00:36:37.002Z,3.60
2022-08-14T00:39:18.182Z,4.10
2022-08-14T00:41:46.645Z,3.77
2022-08-14T00:44:14.887Z,4.00
2022-08-14T00:46:50.457Z,3.40
2022-08-14T00:49:21.139Z,3.77
2022-08-14T00:51:52.294Z,3.60
2022-08-14T00:54:21.931Z,3.57
2022-08-14T00:56:55.044Z,4.30
2022-08-14T00:59:24.867Z,3.60
2022-08-14T01:01:54.318Z,3.83
2022-08-14T01:04:38.432Z,3.60
2022-08-14T01:07:21.335Z,3.93
2022-08-14T01:09:50.787Z,3.90
2022-08-14T01:12:27.417Z,3.57
2022-08-14T01:14:58.848Z,3.57
2022-08-14T01:17:49.472Z,3.50
2022-08-14T01:20:35.315Z,3.67
2022-08-14T01:23:10.349Z,3.47
2022-08-14T01:25:46.027Z,3.63
2022-08-14T01:28:46.895Z,3.90
2022-08-14T01:31:06.408Z,3.53
2022-08-14T01:33:44.675Z,3.43
2022-08-14T01:36:35.558Z,3.57
2022-08-14T01:39:09.763Z,3.83
2022-08-14T01:41:44.146Z,3.87
2022-08-14T01:44:32.992Z,3.23
2022-08-14T01:47:12.453Z,3.70
2022-08-14T01:50:01.253Z,3.60
2022-08-14T01:52:58.510Z,3.97
2022-08-14T01:55:23.890Z,3.70
2022-08-14T01:58:01.445Z,3.80
2022-08-14T02:00:40.230Z,3.90
2022-08-14T02:03:09.401Z,3.80
2022-08-14T02:05:39.014Z,4.10
2022-08-14T02:08:09.632Z,3.53
2022-08-14T02:10:46.676Z,4.33
2022-08-14T02:13:15.954Z,3.77
2022-08-14T02:15:45.715Z,3.40
2022-08-14T02:18:16.379Z,3.70
2022-08-14T02:20:46.265Z,3.60
2022-08-14T02:23:15.580Z,3.30
2022-08-14T02:25:54.616Z,3.77
2022-08-14T02:28:57.177Z,4.00
2022-08-14T02:31:14.889Z,3.60
2022-08-14T02:33:43.956Z,3.67
2022-08-14T02:37:02.518Z,3.67
2022-08-14T02:39:00.837Z,3.80
2022-08-14T02:41:34.990Z,3.53
2022-08-14T02:44:10.781Z,3.50
2022-08-14T02:46:41.114Z,3.47
2022-08-14T02:49:11.020Z,3.57
2022-08-14T02:51:39.756Z,3.73
2022-08-14T02:54:09.218Z,3.87
2022-08-14T02:57:16.760Z,3.80
2022-08-14T02:59:33.453Z,3.27
2022-08-14T03:02:03.471Z,3.83
2022-08-14T03:04:32.818Z,3.50
2022-08-14T03:07:06.408Z,3.67
2022-08-14T03:10:24.615Z,3.47
2022-08-14T03:12:31.014Z,4.10
2022-08-14T03:15:03.638Z,3.67
2022-08-14T03:17:41.104Z,3.53
2022-08-14T03:20:22.457Z,3.60
2022-08-14T03:22:51.486Z,3.53
2022-08-14T03:25:21.435Z,4.10
2022-08-14T03:27:59.002Z,3.73
2022-08-14T03:30:39.856Z,3.80
2022-08-14T03:33:11.104Z,3.53
2022-08-14T03:36:05.453Z,3.63
2022-08-14T03:39:12.371Z,3.67
2022-08-14T03:41:19.608Z,4.03
2022-08-14T03:44:01.082Z,3.63
2022-08-14T03:46:52.216Z,4.07
2022-08-14T03:49:28.156Z,3.83
2022-08-14T03:51:57.685Z,3.70
2022-08-14T03:54:27.501Z,3.77
2022-08-14T03:57:02.481Z,4.10
2022-08-14T03:59:33.225Z,3.40
2022-08-14T04:02:02.650Z,3.63
2022-08-14T04:04:33.460Z,3.80
2022-08-14T04:07:01.583Z,3.90
2022-08-14T04:09:29.986Z,3.80
2022-08-14T04:11:59.645Z,3.73
2022-08-14T04:14:29.400Z,4.00
2022-08-14T04:16:58.683Z,3.53
2022-08-14T04:19:28.287Z,4.10
2022-08-14T04:22:03.674Z,4.00
2022-08-14T04:24:37.821Z,3.90
2022-08-14T04:27:10.035Z,3.60
2022-08-14T04:29:39.500Z,4.10
2022-08-14T04:32:58.271Z,3.93
2022-08-14T04:34:58.562Z,3.70
2022-08-14T04:37:45.232Z,3.83
2022-08-14T04:40:32.130Z,3.77
2022-08-14T04:43:18.180Z,3.63
2022-08-14T04:45:51.146Z,3.67
2022-08-14T04:48:39.975Z,3.80
2022-08-14T04:51:11.277Z,3.70
2022-08-14T04:53:44.016Z,3.70
2022-08-14T04:56:30.799Z,3.80
2022-08-14T04:59:05.187Z,3.80
2022-08-14T05:01:44.846Z,4.00
2022-08-14T05:04:20.120Z,3.90
2022-08-14T05:06:49.476Z,3.50
2022-08-14T05:09:17.940Z,3.20
2022-08-14T05:11:46.425Z,3.50
2022-08-14T05:14:17.256Z,3.60
2022-08-14T05:17:02.453Z,3.50
2022-08-14T05:19:32.544Z,3.80
2022-08-14T05:22:15.576Z,3.67
2022-08-14T05:24:48.716Z,3.70
2022-08-14T05:27:23.337Z,3.80
2022-08-14T05:29:53.783Z,3.80
2022-08-14T05:32:23.431Z,4.40
2022-08-14T05:34:59.258Z,3.57
2022-08-14T05:37:29.665Z,3.33
2022-08-14T05:39:58.733Z,3.83
2022-08-14T05:42:31.889Z,3.60
2022-08-14T05:45:02.238Z,4.50
2022-08-14T05:47:38.979Z,3.90
2022-08-14T05:50:17.455Z,3.67
2022-08-14T05:52:48.488Z,3.37
2022-08-14T05:55:16.880Z,4.07
2022-08-14T05:57:53.094Z,4.10
2022-08-14T06:00:28.192Z,3.50
2022-08-14T06:02:57.495Z,3.90
2022-08-14T06:05:28.828Z,3.97
2022-08-14T06:07:57.397Z,3.60
2022-08-14T06:10:28.215Z,3.63
2022-08-14T06:12:58.050Z,3.70
2022-08-14T06:15:30.013Z,3.87
2022-08-14T06:17:59.830Z,3.60
2022-08-14T06:20:30.427Z,3.80
2022-08-14T06:22:59.102Z,4.03
2022-08-14T06:25:28.181Z,3.80
2022-08-14T06:27:55.991Z,4.30
2022-08-14T06:30:30.452Z,3.73
2022-08-14T06:33:16.409Z,3.97
2022-08-14T06:35:48.830Z,3.70
2022-08-14T06:38:18.701Z,3.93
2022-08-14T06:40:47.696Z,3.60
2022-08-14T06:43:16.983Z,3.67
2022-08-14T06:45:50.386Z,3.40
2022-08-14T06:48:23.746Z,3.73
2022-08-14T06:50:54.664Z,3.80
2022-08-14T06:53:27.760Z,3.57
2022-08-14T06:56:01.850Z,3.83
2022-08-14T06:58:31.879Z,3.70
2022-08-14T07:01:23.016Z,3.63
2022-08-14T07:04:12.765Z,3.73
2022-08-14T07:06:55.515Z,3.80
2022-08-14T07:09:44.247Z,3.77
2022-08-14T07:12:34.881Z,4.00
2022-08-14T07:15:06.018Z,4.20
2022-08-14T07:17:36.466Z,4.10
2022-08-14T07:20:07.416Z,4.03
2022-08-14T07:22:56.329Z,3.87
2022-08-14T07:25:32.217Z,4.10
2022-08-14T07:28:01.325Z,3.87
2022-08-14T07:30:33.853Z,4.33
2022-08-14T07:33:02.979Z,3.90
2022-08-14T07:35:42.884Z,3.90
2022-08-14T07:38:22.034Z,3.50
2022-08-14T07:40:52.967Z,4.07
2022-08-14T07:43:21.861Z,4.07
2022-08-14T07:45:51.032Z,4.43
2022-08-14T07:48:24.973Z,4.33
2022-08-14T07:50:58.338Z,3.95
2022-08-14T07:53:34.182Z,4.00
2022-08-14T07:56:21.434Z,3.93
2022-08-14T07:58:58.394Z,3.60
2022-08-14T08:01:29.954Z,4.35
2022-08-14T08:04:01.145Z,3.83
2022-08-14T08:06:30.246Z,4.07
2022-08-14T08:09:03.574Z,4.20
2022-08-14T08:11:34.882Z,4.55
2022-08-14T08:14:10.673Z,4.22
2022-08-14T08:16:46.630Z,4.07
2022-08-14T08:19:18.884Z,4.03
2022-08-14T08:21:48.072Z,4.20
2022-08-14T08:24:19.902Z,3.88
2022-08-14T08:26:50.299Z,3.83
2022-08-14T08:29:22.511Z,3.80
2022-08-14T08:31:56.218Z,3.72
2022-08-14T08:34:24.412Z,3.67
2022-08-14T08:36:52.696Z,4.15
2022-08-14T08:39:23.616Z,4.15
2022-08-14T08:41:58.714Z,3.58
2022-08-14T08:44:34.451Z,3.67
2022-08-14T08:47:06.633Z,3.88
2022-08-14T08:49:48.082Z,3.80
2022-08-14T08:52:25.348Z,3.50
2022-08-14T08:54:58.610Z,4.10
2022-08-14T08:57:26.801Z,3.70
2022-08-14T08:59:55.109Z,3.72
2022-08-14T09:02:27.931Z,4.22
2022-08-14T09:05:03.767Z,4.43
2022-08-14T09:07:32.549Z,4.15
2022-08-14T09:10:03.613Z,4.28
2022-08-14T09:12:33.515Z,4.25
2022-08-14T09:15:02.985Z,4.30
2022-08-14T09:17:31.118Z,4.75
2022-08-14T09:20:02.080Z,4.30
2022-08-14T09:22:34.669Z,4.28
2022-08-14T09:25:07.787Z,4.57
2022-08-14T09:27:36.529Z,4.60
2022-08-14T09:30:31.121Z,4.25
2022-08-14T09:33:11.583Z,4.28
2022-08-14T09:35:56.562Z,7.30
2022-08-14T09:38:34.620Z,5.88
2022-08-14T09:41:14.861Z,4.82
2022-08-14T09:43:56.258Z,5.30
2022-08-14T09:46:27.712Z,4.63
2022-08-14T09:49:02.393Z,4.38
2022-08-14T09:51:33.091Z,4.30
2022-08-14T09:54:23.043Z,3.85
2022-08-14T09:56:57.112Z,4.35
2022-08-14T09:59:32.088Z,4.45
2022-08-14T10:02:02.092Z,4.20
2022-08-14T10:04:33.361Z,4.65
2022-08-14T10:07:04.115Z,4.60
2022-08-14T10:09:33.578Z,4.30
2022-08-14T10:12:06.853Z,3.95
2022-08-14T10:14:53.357Z,4.53
2022-08-14T10:17:26.786Z,4.10
2022-08-14T10:19:55.757Z,4.05
2022-08-14T10:23:12.580Z,4.15
2022-08-14T10:25:19.865Z,4.40
2022-08-14T10:27:59.721Z,4.38
2022-08-14T10:30:35.097Z,4.15
2022-08-14T10:33:05.033Z,3.88
2022-08-14T10:35:47.808Z,3.80
2022-08-14T10:38:28.297Z,4.10
2022-08-14T10:41:13.333Z,4.05
2022-08-14T10:43:44.707Z,3.80
2022-08-14T10:46:59.136Z,4.00
2022-08-14T10:49:05.147Z,3.67
2022-08-14T10:51:36.201Z,4.07
2022-08-14T10:54:26.085Z,3.75
2022-08-14T10:56:59.929Z,3.75
2022-08-14T10:59:45.803Z,3.65
2022-08-14T11:02:44.704Z,3.50
2022-08-14T11:05:14.884Z,3.60
2022-08-14T11:07:57.345Z,3.70
2022-08-14T11:10:43.022Z,3.50
2022-08-14T11:13:13.559Z,3.80
2022-08-14T11:15:46.364Z,3.40
2022-08-14T11:18:20.907Z,3.97
2022-08-14T11:20:59.683Z,3.78
2022-08-14T11:23:38.704Z,3.42
2022-08-14T11:26:10.761Z,3.17
2022-08-14T11:28:47.168Z,3.60
2022-08-14T11:31:24.239Z,3.40
2022-08-14T11:33:58.629Z,3.40
2022-08-14T11:37:02.752Z,3.20
2022-08-14T11:39:33.992Z,3.50
2022-08-14T11:42:07.681Z,3.40
2022-08-14T11:45:00.274Z,3.03
2022-08-14T11:47:35.306Z,3.10
2022-08-14T11:50:34.004Z,3.35
2022-08-14T11:53:06.767Z,3.15
2022-08-14T11:55:38.333Z,2.75
2022-08-14T11:58:10.549Z,3.13
2022-08-14T12:00:48.507Z,3.50
2022-08-14T12:03:27.082Z,3.17
2022-08-14T12:06:28.010Z,3.47
2022-08-14T12:08:59.743Z,3.30
2022-08-14T12:11:43.370Z,3.13
2022-08-14T12:14:30.188Z,3.55
2022-08-14T12:17:09.548Z,3.25
2022-08-14T12:19:53.859Z,3.38
2022-08-14T12:22:35.616Z,3.17
2022-08-14T12:25:10.652Z,3.30
2022-08-14T12:27:53.639Z,3.00
2022-08-14T12:30:42.733Z,3.20
2022-08-14T12:33:31.322Z,3.08
2022-08-14T12:36:06.257Z,2.95
2022-08-14T12:38:36.585Z,2.90
2022-08-14T12:41:10.868Z,3.28
2022-08-14T12:43:46.509Z,3.15
2022-08-14T12:46:27.350Z,2.97
2022-08-14T12:48:58.042Z,3.33
2022-08-14T12:51:30.891Z,4.78
2022-08-14T12:54:00.140Z,6.75
2022-08-14T12:56:33.816Z,4.07
2022-08-14T12:59:03.337Z,3.47
2022-08-14T13:02:00.267Z,3.10
2022-08-14T13:04:21.691Z,3.13
2022-08-14T13:06:52.989Z,3.15
2022-08-14T13:09:36.696Z,3.13
2022-08-14T13:12:33.423Z,3.20
2022-08-14T13:15:01.629Z,3.20
2022-08-14T13:17:42.654Z,3.22
2022-08-14T13:20:24.069Z,2.90
2022-08-14T13:22:56.291Z,3.70
2022-08-14T13:25:25.941Z,3.25
2022-08-14T13:27:57.696Z,3.25
2022-08-14T13:30:27.027Z,3.20
2022-08-14T13:32:58.476Z,2.85
2022-08-14T13:35:27.668Z,3.03
2022-08-14T13:37:59.171Z,3.30
2022-08-14T13:40:29.343Z,2.90
2022-08-14T13:42:57.988Z,3.78
2022-08-14T13:45:59.948Z,3.05
2022-08-14T13:48:18.528Z,2.75
2022-08-14T13:51:02.080Z,2.90
2022-08-14T13:53:41.357Z,2.67
2022-08-14T13:56:14.699Z,3.03
2022-08-14T13:58:46.849Z,3.15
2022-08-14T14:01:18.940Z,2.90
2022-08-14T14:03:51.549Z,2.83
2022-08-14T14:06:25.215Z,2.75
2022-08-14T14:08:59.105Z,3.25
2022-08-14T14:11:30.046Z,5.63
2022-08-14T14:13:59.929Z,3.03
2022-08-14T14:16:30.646Z,2.90
2022-08-14T14:19:06.688Z,3.55
2022-08-14T14:21:40.788Z,2.92
2022-08-14T14:24:15.577Z,3.10
2022-08-14T14:26:50.007Z,3.10
2022-08-14T14:29:26.118Z,2.83
2022-08-14T14:31:55.167Z,2.90
2022-08-14T14:34:29.822Z,3.22
2022-08-14T14:37:04.584Z,3.40
2022-08-14T14:40:50.521Z,3.10
2022-08-14T14:42:32.223Z,3.35
2022-08-14T14:45:06.035Z,2.85
2022-08-14T14:47:35.257Z,3.13
2022-08-14T14:50:05.017Z,2.95
2022-08-14T14:52:36.950Z,3.03
2022-08-14T14:55:08.429Z,3.40
2022-08-14T14:57:36.852Z,3.22
2022-08-14T15:00:08.824Z,3.40
2022-08-14T15:02:43.821Z,3.38
2022-08-14T15:05:14.550Z,3.47
2022-08-14T15:07:42.951Z,3.63
2022-08-14T15:10:28.037Z,3.30
2022-08-14T15:13:03.786Z,3.28
2022-08-14T15:15:33.312Z,3.20
2022-08-14T15:18:14.896Z,3.20
2022-08-14T15:20:57.530Z,3.70
2022-08-14T15:23:32.229Z,3.60
2022-08-14T15:26:01.964Z,3.13
2022-08-14T15:28:29.671Z,3.20
2022-08-14T15:31:06.942Z,3.50
2022-08-14T15:34:13.128Z,3.45
2022-08-14T15:36:44.415Z,3.10
2022-08-14T15:39:14.651Z,3.10
2022-08-14T15:41:45.301Z,3.20
2022-08-14T15:44:24.820Z,3.45
2022-08-14T15:46:55.012Z,3.40
2022-08-14T15:49:24.346Z,3.70
2022-08-14T15:51:58.637Z,3.63
2022-08-14T15:54:31.478Z,3.45
2022-08-14T15:57:04.546Z,3.75
2022-08-14T15:59:53.855Z,3.50
2022-08-14T16:02:24.501Z,3.42
2022-08-14T16:04:55.671Z,3.70
2022-08-14T16:07:27.188Z,3.75
2022-08-14T16:10:25.263Z,3.53
2022-08-14T16:12:47.380Z,3.58
2022-08-14T16:15:17.139Z,4.35
2022-08-14T16:17:46.762Z,3.65
2022-08-14T16:20:41.685Z,4.05
2022-08-14T16:23:10.413Z,3.30
2022-08-14T16:25:39.694Z,3.65
2022-08-14T16:28:09.190Z,3.80
2022-08-14T16:30:36.926Z,3.33
2022-08-14T16:33:06.810Z,3.83
2022-08-14T16:35:43.186Z,3.63
2022-08-14T16:38:45.535Z,3.65
2022-08-14T16:41:21.972Z,3.30
2022-08-14T16:43:54.082Z,3.55
2022-08-14T16:46:28.174Z,3.90
2022-08-14T16:48:58.726Z,3.75
2022-08-14T16:51:27.965Z,3.40
2022-08-14T16:53:56.406Z,4.00
2022-08-14T16:56:28.143Z,3.70
2022-08-14T16:59:12.144Z,3.75
2022-08-14T17:01:42.156Z,3.60
2022-08-14T17:04:14.958Z,3.50
2022-08-14T17:06:55.032Z,3.53
2022-08-14T17:09:43.337Z,3.90
2022-08-14T17:12:28.730Z,3.50
2022-08-14T17:15:09.892Z,3.30
2022-08-14T17:17:57.833Z,3.60
2022-08-14T17:20:53.971Z,3.58
2022-08-14T17:23:15.116Z,3.50
2022-08-14T17:25:51.285Z,3.55
2022-08-14T17:28:50.550Z,3.67
2022-08-14T17:31:12.239Z,3.40
2022-08-14T17:33:44.741Z,3.45
2022-08-14T17:36:24.266Z,3.30
2022-08-14T17:39:06.830Z,3.50
2022-08-14T17:41:43.672Z,3.38
2022-08-14T17:44:33.339Z,3.40
2022-08-14T17:47:05.869Z,3.58
2022-08-14T17:49:40.335Z,3.28
2022-08-14T17:52:17.650Z,3.63
2022-08-14T17:54:52.842Z,3.45
2022-08-14T17:57:28.628Z,3.72
2022-08-14T17:59:59.404Z,3.42
2022-08-14T18:02:30.948Z,3.42
2022-08-14T18:05:02.754Z,3.30
2022-08-14T18:07:59.994Z,3.38
2022-08-14T18:10:52.618Z,3.53
2022-08-14T18:13:10.629Z,3.40
2022-08-14T18:15:41.425Z,3.30
2022-08-14T18:18:12.967Z,3.65
2022-08-14T18:21:42.449Z,3.33
2022-08-14T18:23:31.857Z,3.70
2022-08-14T18:26:04.899Z,3.67
2022-08-14T18:28:51.494Z,3.20
2022-08-14T18:31:44.095Z,3.35
2022-08-14T18:34:32.117Z,3.58
2022-08-14T18:37:14.378Z,3.67
2022-08-14T18:40:03.437Z,3.33
2022-08-14T18:42:45.543Z,3.60
2022-08-14T18:45:18.889Z,3.95
2022-08-14T18:48:16.007Z,3.58
2022-08-14T18:50:52.337Z,3.40
2022-08-14T18:53:25.019Z,3.40
2022-08-14T18:55:55.551Z,3.90
2022-08-14T18:58:33.816Z,3.85
2022-08-14T19:01:06.202Z,3.60
2022-08-14T19:03:56.299Z,3.70
2022-08-14T19:06:56.141Z,4.00
2022-08-14T19:09:58.015Z,3.42
2022-08-14T19:13:00.283Z,3.75
2022-08-14T19:15:34.327Z,3.70
2022-08-14T19:18:26.327Z,3.38
2022-08-14T19:20:59.006Z,3.60
2022-08-14T19:23:42.669Z,3.67
2022-08-14T19:26:37.047Z,4.20
2022-08-14T19:29:24.497Z,4.07
2022-08-14T19:31:56.283Z,3.65
2022-08-14T19:34:40.572Z,3.97
2022-08-14T19:37:45.876Z,4.10
2022-08-14T19:40:33.224Z,3.55
2022-08-14T19:43:06.330Z,3.78
2022-08-14T19:45:35.318Z,3.90
2022-08-14T19:48:14.094Z,3.90
2022-08-14T19:50:44.961Z,4.18
2022-08-14T19:53:17.618Z,3.55
2022-08-14T19:55:59.588Z,4.13
2022-08-14T19:58:54.533Z,3.92
2022-08-14T20:01:26.806Z,3.90
2022-08-14T20:04:46.864Z,3.72
2022-08-14T20:06:57.601Z,4.20
2022-08-14T20:11:12.351Z,3.92
2022-08-14T20:12:29.277Z,4.07
2022-08-14T20:15:08.715Z,4.05
2022-08-14T20:17:40.181Z,4.25
2022-08-14T20:20:16.651Z,4.22
2022-08-14T20:23:11.406Z,4.40
2022-08-14T20:25:55.676Z,4.35
2022-08-14T20:28:35.335Z,4.05
2022-08-14T20:31:15.893Z,4.35
2022-08-14T20:34:06.136Z,4.50
2022-08-14T20:36:38.818Z,3.90
2022-08-14T20:39:15.369Z,3.95
2022-08-14T20:41:51.396Z,4.10
2022-08-14T20:44:41.827Z,4.25
2022-08-14T20:47:16.213Z,4.20
2022-08-14T20:49:45.582Z,4.32
2022-08-14T20:52:20.137Z,4.40
2022-08-14T20:54:51.503Z,4.18
2022-08-14T20:57:20.156Z,4.45
2022-08-14T20:59:56.677Z,4.55
2022-08-14T21:02:46.626Z,4.68
2022-08-14T21:05:21.916Z,4.05
2022-08-14T21:08:08.035Z,4.07
2022-08-14T21:10:44.014Z,4.28
2022-08-14T21:14:18.732Z,4.78
2022-08-14T21:16:32.959Z,4.03
2022-08-14T21:18:58.351Z,3.97
2022-08-14T21:21:40.780Z,3.88
2022-08-14T21:24:38.828Z,4.32
2022-08-14T21:27:13.241Z,4.03
2022-08-14T21:29:53.426Z,4.30
2022-08-14T21:32:35.194Z,4.03
2022-08-14T21:35:08.336Z,4.35
2022-08-14T21:37:45.483Z,4.60
2022-08-14T21:40:41.163Z,4.40
2022-08-14T21:43:04.999Z,4.30
2022-08-14T21:45:35.467Z,4.53
2022-08-14T21:48:10.851Z,4.72
2022-08-14T21:51:01.414Z,3.95
2022-08-14T21:53:34.353Z,4.07
2022-08-14T21:56:05.317Z,4.40
2022-08-14T21:58:53.843Z,4.57
2022-08-14T22:01:25.051Z,4.43
2022-08-14T22:03:55.867Z,3.97
2022-08-14T22:06:28.969Z,4.35
2022-08-14T22:08:58.275Z,4.60
2022-08-14T22:11:27.608Z,4.55
2022-08-14T22:14:02.416Z,4.43
2022-08-14T22:17:01.746Z,4.88
2022-08-14T22:19:47.231Z,4.25
2022-08-14T22:22:26.003Z,4.82
2022-08-14T22:25:00.001Z,4.55
2022-08-14T22:27:32.128Z,4.93
2022-08-14T22:30:01.388Z,5.20
2022-08-14T22:32:56.029Z,4.70
2022-08-14T22:35:17.986Z,4.70
2022-08-14T22:38:01.617Z,4.82
2022-08-14T22:41:05.605Z,4.30
2022-08-14T22:43:25.238Z,4.47
2022-08-14T22:45:55.776Z,4.40
2022-08-14T22:48:23.986Z,4.07
2022-08-14T22:50:53.677Z,4.35
2022-08-14T22:53:23.520Z,4.57
2022-08-14T22:55:52.405Z,4.70
2022-08-14T22:58:30.558Z,4.47
2022-08-14T23:01:01.218Z,4.40
2022-08-14T23:03:34.142Z,5.25
2022-08-14T23:06:03.284Z,4.88
2022-08-14T23:09:01.839Z,4.55
2022-08-14T23:11:41.116Z,5.10
2022-08-14T23:14:12.354Z,4.65
2022-08-14T23:16:42.587Z,5.10
2022-08-14T23:19:11.633Z,4.68
2022-08-14T23:21:46.199Z,5.22
2022-08-14T23:24:17.452Z,4.90
2022-08-14T23:26:56.319Z,4.50
2022-08-14T23:29:25.165Z,4.55
2022-08-14T23:31:53.316Z,4.73
2022-08-14T23:34:22.878Z,4.35
2022-08-14T23:36:55.429Z,5.20
2022-08-14T23:39:29.488Z,5.22
2022-08-14T23:42:02.133Z,4.97
2022-08-14T23:44:34.866Z,4.85
2022-08-14T23:47:12.007Z,4.65
2022-08-14T23:50:03.671Z,4.45
2022-08-14T23:52:55.681Z,4.60
2022-08-14T23:55:29.023Z,4.80
2022-08-14T23:57:58.969Z,4.88
